createdAt,value
2022-12-20T00:01:56.395Z,1.55
2022-12-20T00:04:24.746Z,1.62
2022-12-20T00:06:53.176Z,1.62
2022-12-20T00:09:21.928Z,1.64
2022-12-20T00:11:50.222Z,1.75
2022-12-20T00:14:18.726Z,1.76
2022-12-20T00:16:47.176Z,1.73
2022-12-20T00:19:16.851Z,1.72
2022-12-20T00:21:45.416Z,1.70
2022-12-20T00:24:13.762Z,1.71
2022-12-20T00:26:42.290Z,1.79
2022-12-20T00:29:11.754Z,1.83
2022-12-20T00:31:40.132Z,1.86
2022-12-20T00:34:11.030Z,1.86
2022-12-20T00:36:40.779Z,1.88
2022-12-20T00:39:10.082Z,1.95
2022-12-20T00:41:38.444Z,1.96
2022-12-20T00:44:06.944Z,1.96
2022-12-20T00:46:35.789Z,1.99
2022-12-20T00:49:04.107Z,2.05
2022-12-20T00:51:32.936Z,2.13
2022-12-20T00:54:01.389Z,2.18
2022-12-20T00:56:29.855Z,2.16
2022-12-20T00:59:00.087Z,2.17
2022-12-20T01:01:32.126Z,2.17
2022-12-20T01:04:01.235Z,2.20
2022-12-20T01:06:30.606Z,2.24
2022-12-20T01:08:59.334Z,2.27
2022-12-20T01:11:31.558Z,2.30
2022-12-20T01:14:02.961Z,2.35
2022-12-20T01:16:35.698Z,2.36
2022-12-20T01:19:05.458Z,2.38
2022-12-20T01:21:34.601Z,2.38
2022-12-20T01:24:03.004Z,2.40
2022-12-20T01:26:31.338Z,2.43
2022-12-20T01:29:00.854Z,2.39
2022-12-20T01:31:30.560Z,2.38
2022-12-20T01:33:59.924Z,2.43
2022-12-20T01:36:34.109Z,2.48
2022-12-20T01:39:06.437Z,2.51
2022-12-20T01:41:35.585Z,2.52
2022-12-20T01:44:17.105Z,2.56
2022-12-20T01:46:48.730Z,2.62
2022-12-20T01:49:30.017Z,2.69
2022-12-20T01:52:06.266Z,2.77
2022-12-20T01:54:39.669Z,2.77
2022-12-20T01:57:21.384Z,2.79
2022-12-20T01:59:52.548Z,2.69
2022-12-20T02:02:23.117Z,2.66
2022-12-20T02:04:51.571Z,2.68
2022-12-20T02:07:24.780Z,2.69
2022-12-20T02:09:55.370Z,2.70
2022-12-20T02:12:34.143Z,2.69
2022-12-20T02:15:23.850Z,2.72
2022-12-20T02:18:10.734Z,2.73
2022-12-20T02:21:07.276Z,2.72
2022-12-20T02:23:43.331Z,2.75
2022-12-20T02:26:38.171Z,2.78
2022-12-20T02:29:18.897Z,2.83
2022-12-20T02:31:54.035Z,2.82
2022-12-20T02:34:27.940Z,2.79
2022-12-20T02:36:56.887Z,2.77
2022-12-20T02:39:29.197Z,2.76
2022-12-20T02:41:59.341Z,2.78
2022-12-20T02:44:49.799Z,2.80
2022-12-20T02:47:25.193Z,2.85
2022-12-20T02:49:56.057Z,2.85
2022-12-20T02:52:31.192Z,2.85
2022-12-20T02:55:01.177Z,2.84
2022-12-20T02:57:57.896Z,2.79
2022-12-20T03:00:33.817Z,2.78
2022-12-20T03:03:21.635Z,2.84
2022-12-20T03:05:55.999Z,2.87
2022-12-20T03:08:25.112Z,2.92
2022-12-20T03:10:55.304Z,3.02
2022-12-20T03:13:25.355Z,3.10
2022-12-20T03:16:00.707Z,3.18
2022-12-20T03:18:29.576Z,3.19
2022-12-20T03:20:58.211Z,3.15
2022-12-20T03:23:27.071Z,3.15
2022-12-20T03:25:55.578Z,3.18
2022-12-20T03:28:34.797Z,3.26
2022-12-20T03:31:04.233Z,3.28
2022-12-20T03:33:34.663Z,3.33
2022-12-20T03:36:07.824Z,3.39
2022-12-20T03:38:36.425Z,3.39
2022-12-20T03:41:06.703Z,3.35
2022-12-20T03:43:35.265Z,3.35
2022-12-20T03:46:04.050Z,3.33
2022-12-20T03:48:36.925Z,3.33
2022-12-20T03:51:05.723Z,3.37
2022-12-20T03:53:34.904Z,3.42
2022-12-20T03:56:03.940Z,3.46
2022-12-20T03:58:32.369Z,3.46
2022-12-20T04:01:01.457Z,3.46
2022-12-20T04:03:43.290Z,3.45
2022-12-20T04:06:12.063Z,3.42
2022-12-20T04:08:40.567Z,3.40
2022-12-20T04:11:16.441Z,3.39
2022-12-20T04:14:08.867Z,3.38
2022-12-20T04:16:37.814Z,3.38
2022-12-20T04:19:07.351Z,3.38
2022-12-20T04:21:40.483Z,3.41
2022-12-20T04:24:10.568Z,3.43
2022-12-20T04:27:02.476Z,3.42
2022-12-20T04:29:31.285Z,3.46
2022-12-20T04:32:00.391Z,3.47
2022-12-20T04:34:29.859Z,3.47
2022-12-20T04:36:59.306Z,3.48
2022-12-20T04:39:38.503Z,3.51
2022-12-20T04:42:28.216Z,3.53
2022-12-20T04:44:57.271Z,3.51
2022-12-20T04:47:27.991Z,3.52
2022-12-20T04:49:56.850Z,3.55
2022-12-20T04:52:48.015Z,3.54
2022-12-20T04:55:16.907Z,3.59
2022-12-20T04:57:46.169Z,3.64
2022-12-20T05:00:15.628Z,3.66
2022-12-20T05:02:45.636Z,3.67
2022-12-20T05:05:17.180Z,3.66
2022-12-20T05:07:50.357Z,3.62
2022-12-20T05:10:19.674Z,3.63
2022-12-20T05:12:50.063Z,3.65
2022-12-20T05:15:26.120Z,3.68
2022-12-20T05:17:59.603Z,3.63
2022-12-20T05:20:31.471Z,3.63
2022-12-20T05:23:19.951Z,3.65
2022-12-20T05:26:09.487Z,3.72
2022-12-20T05:28:38.049Z,3.76
2022-12-20T05:31:06.750Z,3.76
2022-12-20T05:33:37.082Z,3.75
2022-12-20T05:36:06.132Z,3.76
2022-12-20T05:38:34.878Z,3.76
2022-12-20T05:41:06.163Z,3.73
2022-12-20T05:43:34.841Z,3.70
2022-12-20T05:46:05.944Z,3.73
2022-12-20T05:48:42.428Z,3.77
2022-12-20T05:51:12.175Z,3.81
2022-12-20T05:53:53.530Z,3.86
2022-12-20T05:56:25.347Z,3.87
2022-12-20T05:58:53.706Z,3.89
2022-12-20T06:01:22.185Z,3.88
2022-12-20T06:03:51.692Z,3.84
2022-12-20T06:06:20.178Z,3.85
2022-12-20T06:08:49.358Z,3.82
2022-12-20T06:11:40.273Z,3.81
2022-12-20T06:14:11.580Z,3.79
2022-12-20T06:16:45.603Z,3.76
2022-12-20T06:19:21.206Z,3.79
2022-12-20T06:21:50.628Z,3.77
2022-12-20T06:24:25.451Z,3.70
2022-12-20T06:26:54.759Z,3.66
2022-12-20T06:29:24.872Z,3.67
2022-12-20T06:32:00.298Z,3.70
2022-12-20T06:34:29.050Z,3.70
2022-12-20T06:36:57.531Z,3.70
2022-12-20T06:39:29.551Z,3.66
2022-12-20T06:42:05.598Z,3.67
2022-12-20T06:44:35.405Z,3.71
2022-12-20T06:47:03.915Z,3.76
2022-12-20T06:49:32.272Z,3.73
2022-12-20T06:52:00.968Z,3.73
2022-12-20T06:54:45.374Z,3.74
2022-12-20T06:57:15.062Z,3.73
2022-12-20T06:59:45.471Z,3.71
2022-12-20T07:02:14.250Z,3.71
2022-12-20T07:04:42.919Z,3.70
2022-12-20T07:07:13.344Z,3.73
2022-12-20T07:09:42.852Z,3.76
2022-12-20T07:12:12.176Z,3.80
2022-12-20T07:14:40.511Z,3.83
2022-12-20T07:17:09.269Z,3.85
2022-12-20T07:19:38.134Z,3.85
2022-12-20T07:22:06.862Z,3.80
2022-12-20T07:24:35.222Z,3.79
2022-12-20T07:27:03.867Z,3.81
2022-12-20T07:29:32.297Z,3.86
2022-12-20T07:32:00.791Z,3.93
2022-12-20T07:34:29.423Z,3.94
2022-12-20T07:36:57.822Z,3.91
2022-12-20T07:39:26.372Z,3.90
2022-12-20T07:41:55.688Z,3.91
2022-12-20T07:44:24.475Z,3.93
2022-12-20T07:46:53.469Z,3.91
2022-12-20T07:49:22.353Z,3.91
2022-12-20T07:51:55.615Z,3.91
2022-12-20T07:54:38.465Z,3.92
2022-12-20T07:57:12.719Z,3.93
2022-12-20T07:59:47.505Z,3.94
2022-12-20T08:02:22.481Z,3.97
2022-12-20T08:04:51.127Z,4.02
2022-12-20T08:07:19.691Z,4.04
2022-12-20T08:09:48.604Z,4.07
2022-12-20T08:12:19.320Z,4.09
2022-12-20T08:14:47.868Z,4.05
2022-12-20T08:17:16.490Z,4.00
2022-12-20T08:19:44.946Z,3.95
2022-12-20T08:22:13.275Z,3.99
2022-12-20T08:24:41.553Z,4.04
2022-12-20T08:27:09.925Z,4.08
2022-12-20T08:29:38.364Z,4.08
2022-12-20T08:32:06.756Z,4.06
2022-12-20T08:34:35.456Z,4.06
2022-12-20T08:37:09.045Z,4.08
2022-12-20T08:39:40.940Z,4.11
2022-12-20T08:42:12.743Z,4.12
2022-12-20T08:44:41.137Z,4.13
2022-12-20T08:47:10.541Z,4.12
2022-12-20T08:49:44.018Z,4.16
2022-12-20T08:52:16.002Z,4.19
2022-12-20T08:54:44.358Z,4.19
2022-12-20T08:57:13.157Z,4.22
2022-12-20T08:59:43.892Z,4.24
2022-12-20T09:02:12.525Z,4.24
2022-12-20T09:04:41.290Z,4.28
2022-12-20T09:07:09.980Z,4.34
2022-12-20T09:09:38.428Z,4.39
2022-12-20T09:12:07.929Z,4.43
2022-12-20T09:14:36.341Z,4.44
2022-12-20T09:17:04.883Z,4.39
2022-12-20T09:19:33.528Z,4.39
2022-12-20T09:22:02.015Z,4.43
2022-12-20T09:24:30.689Z,4.41
2022-12-20T09:27:00.118Z,4.39
2022-12-20T09:29:35.248Z,4.37
2022-12-20T09:32:04.607Z,4.38
2022-12-20T09:34:33.176Z,4.40
2022-12-20T09:37:01.722Z,4.44
2022-12-20T09:39:30.384Z,4.49
2022-12-20T09:41:59.335Z,4.52
2022-12-20T09:44:32.450Z,4.50
2022-12-20T11:13:22.792Z,6.06
2022-12-20T11:15:54.082Z,5.89
2022-12-20T11:18:48.481Z,5.81
2022-12-20T11:21:45.274Z,5.69
2022-12-20T11:24:23.312Z,5.60
2022-12-20T11:27:09.309Z,5.55
2022-12-20T11:29:46.900Z,5.48
2022-12-20T11:32:48.815Z,5.40
2022-12-20T11:35:16.639Z,5.34
2022-12-20T11:38:07.203Z,5.31
2022-12-20T11:40:43.639Z,5.27
2022-12-20T11:44:23.350Z,5.27
2022-12-20T11:47:20.901Z,5.17
2022-12-20T11:50:02.680Z,5.16
2022-12-20T11:52:35.593Z,5.18
2022-12-20T11:55:06.140Z,5.23
2022-12-20T11:58:16.485Z,5.20
2022-12-20T12:00:34.721Z,5.15
2022-12-20T12:03:12.297Z,5.17
2022-12-20T12:05:58.824Z,5.23
2022-12-20T12:09:06.063Z,5.17
2022-12-20T12:12:06.039Z,5.13
2022-12-20T12:14:34.859Z,5.10
2022-12-20T12:17:11.484Z,5.13
2022-12-20T12:19:42.929Z,5.15
2022-12-20T12:22:22.256Z,5.15
2022-12-20T12:24:56.633Z,5.13
2022-12-20T12:27:26.103Z,5.10
2022-12-20T12:29:58.492Z,5.07
2022-12-20T12:32:30.689Z,5.09
2022-12-20T12:35:38.996Z,5.10
2022-12-20T12:38:33.866Z,5.08
2022-12-20T12:41:09.659Z,5.12
2022-12-20T12:43:45.090Z,5.13
2022-12-20T12:46:21.617Z,5.18
2022-12-20T12:48:56.035Z,5.16
2022-12-20T12:51:34.725Z,5.13
2022-12-20T12:54:16.391Z,5.17
2022-12-20T12:56:49.042Z,5.21
2022-12-20T12:59:40.374Z,5.22
2022-12-20T13:02:14.137Z,5.28
2022-12-20T13:05:04.239Z,5.27
2022-12-20T13:07:31.901Z,5.28
2022-12-20T13:10:24.371Z,5.31
2022-12-20T13:12:51.597Z,5.31
2022-12-20T13:15:18.703Z,5.31
2022-12-20T13:17:59.124Z,5.25
2022-12-20T13:20:29.673Z,5.18
2022-12-20T13:23:12.228Z,5.17
2022-12-20T13:25:57.750Z,5.12
2022-12-20T13:28:25.190Z,5.16
2022-12-20T13:31:01.754Z,5.22
2022-12-20T13:33:44.590Z,5.27
2022-12-20T13:36:11.772Z,5.30
2022-12-20T13:38:45.004Z,5.28
2022-12-20T13:41:36.094Z,5.25
2022-12-20T13:44:15.752Z,5.23
2022-12-20T13:47:10.963Z,5.22
2022-12-20T13:49:40.425Z,5.22
2022-12-20T13:52:20.491Z,5.19
2022-12-20T13:54:51.880Z,5.22
2022-12-20T13:57:26.847Z,5.23
2022-12-20T14:00:03.515Z,5.22
2022-12-20T14:02:40.467Z,5.21
2022-12-20T14:05:25.955Z,5.21
2022-12-20T14:08:14.566Z,5.12
2022-12-20T14:10:41.740Z,5.08
2022-12-20T14:13:38.457Z,5.07
2022-12-20T14:16:18.082Z,5.02
2022-12-20T14:18:57.714Z,5.03
2022-12-20T14:21:26.074Z,5.05
2022-12-20T14:23:56.482Z,5.09
2022-12-20T14:26:29.396Z,5.12
2022-12-20T14:28:58.375Z,5.14
2022-12-20T14:31:30.243Z,5.15
2022-12-20T14:34:16.680Z,5.13
2022-12-20T14:36:46.836Z,5.12
2022-12-20T14:39:31.567Z,5.11
2022-12-20T14:42:12.774Z,5.12
2022-12-20T14:44:40.737Z,5.14
2022-12-20T14:47:25.464Z,5.13
2022-12-20T14:50:01.999Z,5.13
2022-12-20T14:52:37.626Z,5.11
2022-12-20T14:55:29.516Z,5.11
2022-12-20T14:57:57.615Z,5.11
2022-12-20T15:00:31.373Z,5.10
2022-12-20T15:03:01.607Z,5.13
2022-12-20T15:05:44.912Z,5.13
2022-12-20T15:08:18.967Z,5.17
2022-12-20T15:10:54.265Z,5.18
2022-12-20T15:13:39.665Z,5.21
2022-12-20T15:16:28.703Z,5.22
2022-12-20T15:19:01.479Z,5.17
2022-12-20T15:21:32.150Z,5.17
2022-12-20T15:24:01.993Z,5.17
2022-12-20T15:26:30.481Z,5.16
2022-12-20T15:28:57.799Z,5.17
2022-12-20T15:31:32.825Z,5.18
2022-12-20T15:34:03.954Z,5.23
2022-12-20T15:36:33.011Z,5.25
2022-12-20T15:39:15.815Z,5.25
2022-12-20T15:41:46.508Z,5.26
2022-12-20T15:44:23.119Z,5.28
2022-12-20T15:46:50.502Z,5.33
2022-12-20T15:49:20.836Z,5.36
2022-12-20T15:51:49.556Z,5.35
2022-12-20T15:54:29.260Z,5.29
2022-12-20T15:57:06.780Z,5.21
2022-12-20T15:59:59.684Z,5.16
2022-12-20T16:02:27.449Z,5.12
2022-12-20T16:04:55.837Z,5.14
2022-12-20T16:07:23.475Z,5.20
2022-12-20T16:09:51.097Z,5.23
2022-12-20T16:12:26.558Z,5.26
2022-12-20T16:14:54.572Z,5.23
2022-12-20T16:17:21.855Z,5.19
2022-12-20T16:19:50.116Z,5.19
2022-12-20T16:22:21.566Z,5.16
2022-12-20T16:24:49.374Z,5.13
2022-12-20T16:27:17.205Z,5.13
2022-12-20T16:29:44.754Z,5.17
2022-12-20T16:32:18.326Z,5.21
2022-12-20T16:34:46.028Z,5.15
2022-12-20T16:37:13.436Z,5.13
2022-12-20T16:39:44.202Z,5.11
2022-12-20T16:42:15.267Z,5.14
2022-12-20T16:44:44.196Z,5.20
2022-12-20T16:47:11.724Z,5.25
2022-12-20T16:49:38.998Z,5.27
2022-12-20T16:52:16.194Z,5.28
2022-12-20T16:54:43.368Z,5.34
2022-12-20T16:57:10.520Z,5.32
2022-12-20T16:59:37.871Z,5.34
2022-12-20T17:02:21.175Z,5.35
2022-12-20T17:04:48.834Z,5.32
2022-12-20T17:07:15.998Z,5.27
2022-12-20T17:12:28.352Z,5.24
2022-12-20T17:14:55.971Z,5.23
2022-12-20T17:17:23.044Z,5.19
2022-12-20T17:19:50.400Z,5.19
2022-12-20T17:22:24.146Z,5.16
2022-12-20T17:24:52.041Z,5.20
2022-12-20T17:27:19.324Z,5.25
2022-12-20T17:29:46.461Z,5.30
2022-12-20T17:32:22.548Z,5.29
2022-12-20T17:34:50.663Z,5.23
2022-12-20T17:37:18.359Z,5.18
2022-12-20T17:39:45.706Z,5.14
2022-12-20T17:42:13.369Z,5.14
2022-12-20T17:44:40.604Z,5.15
2022-12-20T17:47:07.789Z,5.14
2022-12-20T17:49:34.887Z,5.13
2022-12-20T17:52:02.063Z,5.17
2022-12-20T17:54:35.149Z,5.19
2022-12-20T17:57:11.371Z,5.21
2022-12-20T17:59:38.948Z,5.21
2022-12-20T18:02:21.325Z,5.17
2022-12-20T18:04:49.337Z,5.20
2022-12-20T18:07:16.880Z,5.27
2022-12-20T18:09:46.953Z,5.31
2022-12-20T18:12:14.240Z,5.33
2022-12-20T18:14:41.563Z,5.31
2022-12-20T18:17:08.772Z,5.30
2022-12-20T18:19:36.083Z,5.32
2022-12-20T18:22:04.207Z,5.38
2022-12-20T18:24:31.635Z,5.42
2022-12-20T18:26:58.882Z,5.45
2022-12-20T18:29:26.198Z,5.49
2022-12-20T18:31:53.490Z,5.47
2022-12-20T18:34:20.733Z,5.40
2022-12-20T18:36:48.077Z,5.40
2022-12-20T18:39:15.324Z,5.43
2022-12-20T18:41:43.719Z,5.41
2022-12-20T18:44:11.410Z,5.43
2022-12-20T18:46:40.217Z,5.46
2022-12-20T18:49:08.809Z,5.44
2022-12-20T18:51:36.654Z,5.39
2022-12-20T18:54:06.235Z,5.37
2022-12-20T18:56:36.775Z,5.35
2022-12-20T18:59:10.756Z,5.29
2022-12-20T19:01:40.888Z,5.25
2022-12-20T19:04:08.581Z,5.25
2022-12-20T19:06:37.343Z,5.25
2022-12-20T19:09:08.301Z,5.23
2022-12-20T19:11:35.987Z,5.23
2022-12-20T19:14:03.151Z,5.25
2022-12-20T19:16:32.041Z,5.27
2022-12-20T19:19:01.109Z,5.31
2022-12-20T19:21:34.410Z,5.36
2022-12-20T19:24:06.109Z,5.39
2022-12-20T19:26:35.789Z,5.38
2022-12-20T19:29:03.821Z,5.33
2022-12-20T19:31:32.901Z,5.32
2022-12-20T19:34:03.541Z,5.33
2022-12-20T19:36:35.561Z,5.38
2022-12-20T19:39:04.387Z,5.39
2022-12-20T19:41:33.779Z,5.33
2022-12-20T19:44:01.861Z,5.34
2022-12-20T19:46:30.123Z,5.35
2022-12-20T19:48:59.282Z,5.33
2022-12-20T19:51:27.722Z,5.32
2022-12-20T19:53:56.876Z,5.29
2022-12-20T19:56:28.748Z,5.26
2022-12-20T19:58:56.424Z,5.29
2022-12-20T20:01:26.811Z,5.36
2022-12-20T20:03:56.625Z,5.37
2022-12-20T20:06:24.353Z,5.35
2022-12-20T20:08:51.993Z,5.30
2022-12-20T20:11:20.452Z,5.31
2022-12-20T20:13:47.701Z,5.31
2022-12-20T20:16:21.553Z,5.30
2022-12-20T20:18:49.958Z,5.28
2022-12-20T20:21:21.373Z,5.24
2022-12-20T20:23:51.090Z,5.19
2022-12-20T20:26:23.978Z,5.19
2022-12-20T20:28:52.072Z,5.16
2022-12-20T20:31:20.459Z,5.13
2022-12-20T20:33:48.696Z,5.12
2022-12-20T20:36:21.500Z,5.16
2022-12-20T20:38:51.106Z,5.15
2022-12-20T20:41:18.997Z,5.14
2022-12-20T20:43:46.231Z,5.12
2022-12-20T20:46:15.342Z,5.12
2022-12-20T20:48:43.287Z,5.12
2022-12-20T20:51:11.240Z,5.06
2022-12-20T20:53:38.908Z,5.03
2022-12-20T20:56:07.844Z,5.03
2022-12-20T20:58:35.434Z,5.09
2022-12-20T21:01:04.834Z,5.13
2022-12-20T21:03:32.092Z,5.09
2022-12-20T21:08:47.197Z,5.08
2022-12-20T21:11:14.928Z,5.09
2022-12-20T21:13:42.324Z,5.04
2022-12-20T21:16:19.504Z,4.97
2022-12-20T21:18:51.572Z,4.95
2022-12-20T21:21:19.926Z,4.98
2022-12-20T21:23:47.882Z,4.99
2022-12-20T21:26:16.584Z,5.00
2022-12-20T21:28:43.818Z,4.96
2022-12-20T21:31:17.668Z,4.96
2022-12-20T21:33:45.687Z,4.96
2022-12-20T21:36:15.584Z,4.97
2022-12-20T21:38:47.577Z,5.01
2022-12-20T21:41:14.750Z,5.05
2022-12-20T21:43:42.114Z,5.10
2022-12-20T21:46:10.677Z,5.13
2022-12-20T21:48:42.944Z,5.12
2022-12-20T21:51:21.663Z,5.06
2022-12-20T21:53:51.676Z,4.97
2022-12-20T21:56:20.193Z,4.92
2022-12-20T21:58:48.238Z,4.89
2022-12-20T22:01:18.612Z,4.88
2022-12-20T22:03:50.093Z,4.91
2022-12-20T22:06:18.023Z,4.93
2022-12-20T22:08:45.346Z,4.95
2022-12-20T22:11:17.731Z,4.96
2022-12-20T22:13:45.966Z,4.92
2022-12-20T22:16:16.214Z,4.89
2022-12-20T22:18:47.371Z,4.90
2022-12-20T22:21:16.319Z,4.89
2022-12-20T22:23:43.532Z,4.94
2022-12-20T22:26:16.210Z,4.97
2022-12-20T22:28:46.372Z,4.95
2022-12-20T22:31:13.831Z,4.93
2022-12-20T22:33:41.573Z,4.91
2022-12-20T22:36:10.586Z,4.95
2022-12-20T22:38:38.075Z,5.01
2022-12-20T22:41:29.337Z,4.96
2022-12-20T22:44:00.318Z,4.91
2022-12-20T22:46:31.130Z,4.87
2022-12-20T22:48:59.372Z,4.85
2022-12-20T22:51:30.111Z,4.84
2022-12-20T22:53:58.501Z,4.86
2022-12-20T22:56:26.145Z,4.88
2022-12-20T22:58:53.355Z,4.91
2022-12-20T23:01:20.935Z,4.94
2022-12-20T23:03:48.713Z,5.00
2022-12-20T23:06:19.493Z,5.05
2022-12-20T23:08:47.567Z,5.06
2022-12-20T23:11:42.552Z,4.99
2022-12-20T23:15:03.788Z,4.93
2022-12-20T23:17:32.604Z,4.89
2022-12-20T23:20:18.807Z,4.87
2022-12-20T23:22:46.418Z,4.92
2022-12-20T23:25:16.638Z,4.97
2022-12-20T23:27:46.920Z,4.99
2022-12-20T23:30:17.451Z,4.98
2022-12-20T23:32:45.528Z,4.99
2022-12-20T23:35:15.641Z,4.96
2022-12-20T23:37:44.885Z,4.93
2022-12-20T23:40:13.627Z,4.88
2022-12-20T23:42:41.074Z,4.85
2022-12-20T23:45:10.033Z,4.83
2022-12-20T23:47:37.355Z,4.82
2022-12-20T23:50:05.453Z,4.87
2022-12-20T23:52:32.969Z,4.86
2022-12-20T23:55:00.334Z,4.86
2022-12-20T23:57:31.042Z,4.87
2022-12-20T23:59:58.864Z,4.89
